TNCB Airport Information

Runway Information
Runway 10 Length 9449 ft width 148 ft
Elevation 14 ft Threshold 0 ft Heading 92
Runway 28 Length 9449 ft Width 148 ft
Elevation 20 ft Threshold 0 ft Heading 272
Airport Frequencies
Type TWR Name TWR Frequency 118.7 MHZ
Airport Navaids
Type NDB Name Bonaire Frequency 321 KHZ
Airport Weather Information & NOTAM
ADDS - METARS form results

(1900 UTC 22 March 2019)
Data provider http://aviationweather.gov/metar/data/
 
Forecast for: TNCB (BONAIRE/FLAMINGO, AN)
Text: TAF TNCB 221636Z 2218/2324 10014KT 9999 SCT020
Forecast period: 1800 UTC 22 March 2019 to 0000 UTC 24 March 2019
Forecast type: FROM: standard forecast or significant change
Winds: from the E (100 degrees) at 16 MPH (14 knots; 7.2 m/s)
Visibility: 6 or more miles 10+ km)
Ceiling: at least 12,000 feet AGL
Clouds: scattered clouds at 2000 feet AGL
Weather: no significant weather forecast for this period